Back to Top

Language: 

My Weather Underground Personal Weather Station Historical Data with Graphs...

Delerius Weather Station Historical Data
 
Daily Summary for March 21, 2019 Units:  Metric    English   Both
« Previous Day
Next Day »
Daily Weekly Monthly Yearly Custom
  Current: High: Low: Average:
Temperature: 11.7 °C 11.7 °C 10.1 °C 10.6 °C
Dew Point: 9.4 °C 9.4 °C 7.9 °C 8.6 °C
Humidity: 86% 89% 84% 87%
Wind Speed: 6.4km/h 14.5km/h 1.6km/h 7.7km/h
Wind Gust: 9.7km/h 29km/h - -
WindWest - - West
Pressure: 1031 hPa 1031 hPa 1028.7 hPa -
Precipitation: 0 mm      
Historical Graphs
 
 
Tabular Data for March 21, 2019
Time Temperature Dew Point Pressure Wind Wind Speed Wind Gust Humidity Rainfall Rate (Hourly) solar Conditions
00:04 10.8 °C 8.4 °C 1029.3 hPa West 8 km/h 16.1 km/h 85% 0 mm 0.00 W/m2
00:09 10.8 °C 8.4 °C 1029.3 hPa West 3.2 km/h 8 km/h 85% 0 mm 0.00 W/m2
00:15 10.7 °C 8.3 °C 1029.3 hPa West 1.6 km/h 8 km/h 85% 0 mm 0.00 W/m2
00:19 10.7 °C 8.1 °C 1029.7 hPa WNW 8 km/h 12.9 km/h 84% 0 mm 0.00 W/m2
00:24 10.6 °C 8.2 °C 1029.7 hPa WNW 9.7 km/h 14.5 km/h 85% 0 mm 0.00 W/m2
00:29 10.6 °C 8.2 °C 1029.7 hPa WNW 9.7 km/h 14.5 km/h 85% 0 mm 0.00 W/m2
00:34 10.5 °C 8.1 °C 1029.7 hPa WNW 3.2 km/h 8 km/h 85% 0 mm 0.00 W/m2
00:39 10.4 °C 8 °C 1029.7 hPa West 4.8 km/h 9.7 km/h 85% 0 mm 0.00 W/m2
00:44 10.3 °C 7.9 °C 1029.7 hPa WNW 6.4 km/h 9.7 km/h 85% 0 mm 0.00 W/m2
00:49 10.3 °C 8.1 °C 1029.7 hPa WNW 6.4 km/h 9.7 km/h 86% 0 mm 0.00 W/m2
00:54 10.3 °C 8.1 °C 1029.7 hPa West 9.7 km/h 16.1 km/h 86% 0 mm 0.00 W/m2
00:59 10.4 °C 8.2 °C 1029.7 hPa WSW 11.3 km/h 16.1 km/h 86% 0 mm 0.00 W/m2
01:04 10.6 °C 8.3 °C 1029.7 hPa West 12.9 km/h 20.9 km/h 86% 0 mm 0.00 W/m2
01:09 10.6 °C 8.3 °C 1029.7 hPa West 11.3 km/h 17.7 km/h 86% 0 mm 0.00 W/m2
01:14 10.7 °C 8.4 °C 1029.3 hPa West 11.3 km/h 19.3 km/h 86% 0 mm 0.00 W/m2
01:19 10.8 °C 8.6 °C 1029.3 hPa West 11.3 km/h 16.1 km/h 86% 0 mm 0.00 W/m2
01:24 10.8 °C 8.4 °C 1029.3 hPa West 8 km/h 16.1 km/h 85% 0 mm 0.00 W/m2
01:29 10.7 °C 8.3 °C 1029.3 hPa West 8 km/h 16.1 km/h 85% 0 mm 0.00 W/m2
01:34 10.7 °C 8.4 °C 1029.3 hPa West 9.7 km/h 16.1 km/h 86% 0 mm 0.00 W/m2
01:39 10.6 °C 8.3 °C 1029.3 hPa West 8 km/h 12.9 km/h 86% 0 mm 0.00 W/m2
01:44 10.6 °C 8.3 °C 1029.3 hPa WSW 11.3 km/h 16.1 km/h 86% 0 mm 0.00 W/m2
01:49 10.5 °C 8.3 °C 1029 hPa WSW 8 km/h 14.5 km/h 86% 0 mm 0.00 W/m2
01:55 10.5 °C 8.3 °C 1029 hPa WSW 6.4 km/h 12.9 km/h 86% 0 mm 0.00 W/m2
01:59 10.5 °C 8.3 °C 1029 hPa WSW 6.4 km/h 12.9 km/h 86% 0 mm 0.00 W/m2
02:04 10.4 °C 8.3 °C 1029 hPa WSW 4.8 km/h 11.3 km/h 87% 0 mm 0.00 W/m2
02:09 10.4 °C 8.3 °C 1029 hPa WSW 3.2 km/h 9.7 km/h 87% 0 mm 0.00 W/m2
02:14 10.3 °C 8.2 °C 1029 hPa WSW 6.4 km/h 12.9 km/h 87% 0 mm 0.00 W/m2
02:19 10.3 °C 8.2 °C 1029 hPa WSW 6.4 km/h 14.5 km/h 87% 0 mm 0.00 W/m2
02:24 10.3 °C 8.2 °C 1029 hPa West 4.8 km/h 11.3 km/h 87% 0 mm 0.00 W/m2
02:29 10.2 °C 8.1 °C 1029 hPa West 9.7 km/h 16.1 km/h 87% 0 mm 0.00 W/m2
02:34 10.2 °C 8.3 °C 1028.7 hPa West 8 km/h 12.9 km/h 88% 0 mm 0.00 W/m2
02:39 10.2 °C 8.3 °C 1028.7 hPa West 8 km/h 12.9 km/h 88% 0 mm 0.00 W/m2
02:44 10.3 °C 8.4 °C 1028.7 hPa West 9.7 km/h 17.7 km/h 88% 0 mm 0.00 W/m2
02:49 10.3 °C 8.4 °C 1028.7 hPa West 9.7 km/h 17.7 km/h 88% 0 mm 0.00 W/m2
02:54 10.4 °C 8.5 °C 1028.7 hPa WSW 8 km/h 14.5 km/h 88% 0 mm 0.00 W/m2
02:59 10.4 °C 8.3 °C 1028.7 hPa WSW 4.8 km/h 9.7 km/h 87% 0 mm 0.00 W/m2
03:05 10.3 °C 8.2 °C 1028.7 hPa WNW 3.2 km/h 8 km/h 87% 0 mm 0.00 W/m2
03:09 10.2 °C 8.1 °C 1028.7 hPa WNW 9.7 km/h 14.5 km/h 87% 0 mm 0.00 W/m2
03:14 10.2 °C 8.3 °C 1028.7 hPa West 11.3 km/h 19.3 km/h 88% 0 mm 0.00 W/m2
03:19 10.2 °C 8.3 °C 1028.7 hPa West 8 km/h 14.5 km/h 88% 0 mm 0.00 W/m2
03:24 10.2 °C 8.3 °C 1028.7 hPa West 11.3 km/h 17.7 km/h 88% 0 mm 0.00 W/m2
03:29 10.3 °C 8.4 °C 1028.7 hPa West 11.3 km/h 16.1 km/h 88% 0 mm 0.00 W/m2
03:34 10.4 °C 8.5 °C 1028.7 hPa West 12.9 km/h 19.3 km/h 88% 0 mm 0.00 W/m2
03:39 10.4 °C 8.5 °C 1028.7 hPa West 14.5 km/h 29 km/h 88% 0 mm 0.00 W/m2
03:44 10.5 °C 8.6 °C 1029 hPa West 12.9 km/h 24.1 km/h 88% 0 mm 0.00 W/m2
03:49 10.5 °C 8.6 °C 1028.7 hPa West 14.5 km/h 20.9 km/h 88% 0 mm 0.00 W/m2
03:54 10.6 °C 8.7 °C 1029 hPa West 9.7 km/h 17.7 km/h 88% 0 mm 0.00 W/m2
03:59 10.5 °C 8.6 °C 1029 hPa West 8 km/h 17.7 km/h 88% 0 mm 0.00 W/m2
04:04 10.5 °C 8.6 °C 1029 hPa West 8 km/h 14.5 km/h 88% 0 mm 0.00 W/m2
04:09 10.4 °C 8.5 °C 1029 hPa WNW 11.3 km/h 17.7 km/h 88% 0 mm 0.00 W/m2
04:14 10.3 °C 8.4 °C 1029.3 hPa WNW 9.7 km/h 16.1 km/h 88% 0 mm 0.00 W/m2
04:19 10.2 °C 8.3 °C 1029 hPa West 12.9 km/h 19.3 km/h 88% 0 mm 0.00 W/m2
04:24 10.2 °C 8.3 °C 1029.3 hPa West 4.8 km/h 11.3 km/h 88% 0 mm 0.00 W/m2
04:29 10.2 °C 8.3 °C 1029.3 hPa West 6.4 km/h 14.5 km/h 88% 0 mm 0.00 W/m2
04:34 10.1 °C 8.2 °C 1029.3 hPa WNW 8 km/h 14.5 km/h 88% 0 mm 0.00 W/m2
04:39 10.1 °C 8.4 °C 1029.7 hPa WNW 11.3 km/h 17.7 km/h 89% 0 mm 0.00 W/m2
04:44 10.1 °C 8.4 °C 1029.7 hPa West 6.4 km/h 16.1 km/h 89% 0 mm 0.00 W/m2
04:49 10.2 °C 8.4 °C 1029.7 hPa West 8 km/h 12.9 km/h 89% 0 mm 0.00 W/m2
04:54 10.2 °C 8.4 °C 1029.3 hPa WSW 6.4 km/h 16.1 km/h 89% 0 mm 0.00 W/m2
04:59 10.3 °C 8.6 °C 1029.7 hPa WSW 4.8 km/h 9.7 km/h 89% 0 mm 0.00 W/m2
05:04 10.3 °C 8.6 °C 1029.7 hPa WSW 6.4 km/h 12.9 km/h 89% 0 mm 0.00 W/m2
05:09 10.5 °C 8.8 °C 1029.7 hPa WSW 8 km/h 12.9 km/h 89% 0 mm 0.00 W/m2
05:14 10.6 °C 8.9 °C 1029.7 hPa West 9.7 km/h 17.7 km/h 89% 0 mm 0.00 W/m2
05:19 10.7 °C 8.9 °C 1029.7 hPa West 11.3 km/h 16.1 km/h 89% 0 mm 0.00 W/m2
05:24 10.8 °C 9.1 °C 1029.7 hPa WSW 6.4 km/h 14.5 km/h 89% 0 mm 0.00 W/m2
05:29 10.7 °C 8.9 °C 1030 hPa West 3.2 km/h 12.9 km/h 89% 0 mm 0.00 W/m2
05:34 10.7 °C 8.9 °C 1030 hPa WSW 1.6 km/h 6.4 km/h 89% 0 mm 0.00 W/m2
05:39 10.7 °C 8.9 °C 1029.7 hPa WSW 4.8 km/h 11.3 km/h 89% 0 mm 0.00 W/m2
05:44 10.6 °C 8.9 °C 1030 hPa West 8 km/h 16.1 km/h 89% 0 mm 0.00 W/m2
05:49 10.6 °C 8.7 °C 1029.7 hPa WSW 6.4 km/h 11.3 km/h 88% 0 mm 0.00 W/m2
05:54 10.6 °C 8.7 °C 1029.7 hPa WSW 8 km/h 16.1 km/h 88% 0 mm 0.00 W/m2
05:59 10.6 °C 8.9 °C 1029.7 hPa WSW 6.4 km/h 9.7 km/h 89% 0 mm 0.00 W/m2
06:05 10.6 °C 8.9 °C 1030 hPa WSW 6.4 km/h 11.3 km/h 89% 0 mm 0.00 W/m2
06:09 10.7 °C 8.9 °C 1030 hPa WSW 4.8 km/h 9.7 km/h 89% 0 mm 5.00 W/m2
06:14 10.7 °C 8.9 °C 1030 hPa WSW 4.8 km/h 12.9 km/h 89% 0 mm 5.00 W/m2
06:19 10.7 °C 8.9 °C 1030 hPa WSW 4.8 km/h 16.1 km/h 89% 0 mm 7.00 W/m2
06:24 10.7 °C 8.9 °C 1030 hPa WSW 6.4 km/h 12.9 km/h 89% 0 mm 7.00 W/m2
06:29 10.7 °C 8.9 °C 1030 hPa WSW 6.4 km/h 11.3 km/h 89% 0 mm 11.00 W/m2
06:34 10.8 °C 8.9 °C 1030 hPa WSW 8 km/h 17.7 km/h 88% 0 mm 9.00 W/m2
06:39 10.8 °C 8.9 °C 1030.4 hPa WSW 4.8 km/h 12.9 km/h 88% 0 mm 11.00 W/m2
06:44 10.8 °C 8.9 °C 1030.4 hPa WSW 9.7 km/h 17.7 km/h 88% 0 mm 14.00 W/m2
06:49 10.8 °C 8.9 °C 1030.4 hPa West 8 km/h 16.1 km/h 88% 0 mm 19.00 W/m2
06:54 10.9 °C 9 °C 1030.4 hPa WSW 12.9 km/h 22.5 km/h 88% 0 mm 21.00 W/m2
06:59 10.9 °C 9 °C 1030.4 hPa WSW 6.4 km/h 12.9 km/h 88% 0 mm 21.00 W/m2
07:04 10.9 °C 9 °C 1030.4 hPa West 6.4 km/h 14.5 km/h 88% 0 mm 26.00 W/m2
07:09 11 °C 9.1 °C 1030.4 hPa WSW 3.2 km/h 9.7 km/h 88% 0 mm 32.00 W/m2
07:14 11 °C 8.9 °C 1030.4 hPa WSW 3.2 km/h 11.3 km/h 87% 0 mm 35.00 W/m2
07:19 11 °C 8.9 °C 1030.4 hPa WSW 3.2 km/h 8 km/h 87% 0 mm 40.00 W/m2
07:24 11.1 °C 9 °C 1030.7 hPa WSW 3.2 km/h 8 km/h 87% 0 mm 40.00 W/m2
07:29 11.1 °C 9 °C 1030.7 hPa West 4.8 km/h 12.9 km/h 87% 0 mm 47.00 W/m2
07:34 11.1 °C 9 °C 1030.7 hPa West 3.2 km/h 8 km/h 87% 0 mm 56.00 W/m2
07:39 11.2 °C 9.1 °C 1030.7 hPa West 6.4 km/h 11.3 km/h 87% 0 mm 63.00 W/m2
07:44 11.2 °C 9.1 °C 1030.7 hPa West 4.8 km/h 9.7 km/h 87% 0 mm 72.00 W/m2
07:49 11.2 °C 9.1 °C 1030.7 hPa West 8 km/h 14.5 km/h 87% 0 mm 77.00 W/m2
07:54 11.3 °C 9.2 °C 1031 hPa West 9.7 km/h 14.5 km/h 87% 0 mm 83.00 W/m2
07:59 11.3 °C 9.2 °C 1031 hPa WSW 6.4 km/h 9.7 km/h 87% 0 mm 83.00 W/m2
08:04 11.4 °C 9.2 °C 1031 hPa West 8 km/h 17.7 km/h 86% 0 mm 86.00 W/m2
08:10 11.4 °C 9.2 °C 1031 hPa West 9.7 km/h 14.5 km/h 86% 0 mm 116.00 W/m2
08:14 11.5 °C 9.2 °C 1031 hPa West 9.7 km/h 17.7 km/h 86% 0 mm 93.00 W/m2
08:19 11.5 °C 9.2 °C 1031 hPa West 9.7 km/h 16.1 km/h 86% 0 mm 93.00 W/m2
08:24 11.6 °C 9.3 °C 1031 hPa West 6.4 km/h 11.3 km/h 86% 0 mm 118.00 W/m2
08:29 11.7 °C 9.4 °C 1031 hPa West 6.4 km/h 9.7 km/h 86% 0 mm 120.00 W/m2
Delerius Weather

Data updates at regular intervals.